Time;durP1;ratioP1;P1;durP2;ratioP2;P2;SDS_P1;SDS_P2;PMS_P1;PMS_P2;Temp;Humidity;BMP_temperature;BMP_pressure;BME280_temperature;BME280_humidity;BME280_pressure;Samples;Min_cycle;Max_cycle;Signal;HPM_P1;HPM_P2
2023/03/28 00:00:33;;;;;;;;;;;2.30;99.90;;;;;;5039898;28;19991;-76
2023/03/28 00:02:59;;;;;;;;;;;2.90;99.90;;;;;;5051504;28;19982;-76
2023/03/28 00:05:24;;;;;;;;;;;2.40;99.90;;;;;;5051252;28;20302;-76
2023/03/28 00:07:50;;;;;;;;;;;2.80;99.90;;;;;;5053365;28;19995;-76
2023/03/28 00:10:16;;;;;;;;;;;2.80;99.90;;;;;;5052507;28;20724;-76
2023/03/28 00:12:42;;;;;;;;;;;2.20;99.90;;;;;;5032777;28;19980;-75
2023/03/28 00:15:08;;;;;;;;;;;3.00;99.90;;;;;;5038175;28;20015;-76
2023/03/28 00:17:33;;;;;;;;;;;2.10;99.90;;;;;;5051703;28;19924;-76
2023/03/28 00:20:03;;;;;;;;;;;2.30;99.90;;;;;;5051072;28;19924;-75
2023/03/28 00:22:29;;;;;;;;;;;2.10;99.90;;;;;;5053547;28;19936;-76
2023/03/28 00:24:56;;;;;;;;;;;2.00;99.90;;;;;;5052892;28;19929;-76
2023/03/28 00:27:21;;;;;;;;;;;2.40;99.90;;;;;;5051445;28;19933;-76
2023/03/28 00:29:47;;;;;;;;;;;2.00;99.90;;;;;;5051898;28;19979;-76
2023/03/28 00:32:12;;;;;;;;;;;2.30;99.90;;;;;;5051776;28;19978;-76
2023/03/28 00:34:38;;;;;;;;;;;2.20;99.90;;;;;;5048176;28;19925;-76
2023/03/28 00:37:04;;;;;;;;;;;1.90;99.90;;;;;;5050649;28;19924;-75
2023/03/28 00:39:30;;;;;;;;;;;2.40;99.90;;;;;;5051431;28;19935;-76
2023/03/28 00:41:59;;;;;;;;;;;1.90;99.90;;;;;;5052395;28;20301;-76
2023/03/28 00:44:37;;;;;;;;;;;1.80;99.90;;;;;;5042435;28;19952;-76
2023/03/28 00:47:03;;;;;;;;;;;1.80;99.90;;;;;;5083390;28;19972;-76
2023/03/28 00:49:28;;;;;;;;;;;1.70;99.90;;;;;;5052557;28;20005;-76
2023/03/28 00:51:56;;;;;;;;;;;2.20;99.90;;;;;;5052919;28;19924;-76
2023/03/28 00:54:23;;;;;;;;;;;1.70;99.90;;;;;;5053238;28;20024;-76
2023/03/28 00:56:51;;;;;;;;;;;1.90;99.90;;;;;;5051777;28;19929;-76
2023/03/28 00:59:18;;;;;;;;;;;1.70;99.90;;;;;;5051407;28;20016;-75
2023/03/28 01:01:44;;;;;;;;;;;1.70;99.90;;;;;;5050564;28;19939;-76
2023/03/28 01:04:09;;;;;;;;;;;1.60;99.90;;;;;;5032757;28;19928;-79
2023/03/28 01:06:39;;;;;;;;;;;1.60;99.90;;;;;;5050610;28;20440;-75
2023/03/28 01:09:06;;;;;;;;;;;1.80;99.90;;;;;;5049383;28;19944;-75
2023/03/28 01:11:37;;;;;;;;;;;1.90;99.90;;;;;;5063694;28;19929;-77
2023/03/28 01:14:03;;;;;;;;;;;2.10;99.90;;;;;;5053073;28;19931;-75
2023/03/28 01:16:31;;;;;;;;;;;2.00;99.90;;;;;;5033980;28;20032;-75
2023/03/28 01:19:00;;;;;;;;;;;1.60;99.90;;;;;;5030994;28;19926;-76
2023/03/28 01:21:32;;;;;;;;;;;1.50;99.90;;;;;;5060776;28;19932;-75
2023/03/28 01:24:07;;;;;;;;;;;1.50;99.90;;;;;;5049131;28;19929;-76
2023/03/28 01:26:51;;;;;;;;;;;1.50;99.90;;;;;;5051123;28;19986;-76
2023/03/28 01:29:17;;;;;;;;;;;1.50;99.90;;;;;;5043181;28;19928;-76
2023/03/28 01:32:01;;;;;;;;;;;3.00;99.90;;;;;;5049810;28;19929;-76
2023/03/28 01:34:36;;;;;;;;;;;1.50;99.90;;;;;;5050191;28;20394;-75
2023/03/28 01:37:04;;;;;;;;;;;1.50;99.90;;;;;;5051507;28;19932;-76
2023/03/28 01:39:54;;;;;;;;;;;1.50;99.90;;;;;;5051610;28;19929;-76
2023/03/28 01:42:23;;;;;;;;;;;1.50;99.90;;;;;;5041563;28;20278;-76
2023/03/28 01:44:51;;;;;;;;;;;1.50;99.90;;;;;;5052107;28;19929;-76
2023/03/28 01:47:31;;;;;;;;;;;1.50;99.90;;;;;;5048963;28;19924;-75
2023/03/28 01:50:03;;;;;;;;;;;1.90;99.90;;;;;;5050780;28;19948;-75
2023/03/28 01:52:53;;;;;;;;;;;1.50;99.90;;;;;;5051951;28;19936;-75
2023/03/28 01:55:39;;;;;;;;;;;1.40;99.90;;;;;;5052092;28;19975;-76
2023/03/28 01:58:10;;;;;;;;;;;1.50;99.90;;;;;;5051400;28;19928;-75
2023/03/28 02:00:41;;;;;;;;;;;1.40;99.90;;;;;;5046976;28;19924;-76
2023/03/28 02:03:17;;;;;;;;;;;1.40;99.90;;;;;;5049990;28;19932;-75
2023/03/28 02:05:44;;;;;;;;;;;1.40;99.90;;;;;;5029445;28;19929;-76
2023/03/28 02:08:12;;;;;;;;;;;1.40;99.90;;;;;;5030640;28;19925;-75
2023/03/28 02:10:39;;;;;;;;;;;1.30;99.90;;;;;;5048988;28;19933;-76
2023/03/28 02:13:10;;;;;;;;;;;1.40;99.90;;;;;;5048663;28;19948;-76
2023/03/28 02:15:37;;;;;;;;;;;1.40;99.90;;;;;;5051331;28;19925;-75
2023/03/28 02:18:07;;;;;;;;;;;1.70;99.90;;;;;;5050108;28;19925;-76
2023/03/28 02:20:33;;;;;;;;;;;1.40;99.90;;;;;;5050744;28;20070;-76
2023/03/28 02:23:01;;;;;;;;;;;2.70;99.90;;;;;;5051039;28;19936;-76
2023/03/28 02:25:28;;;;;;;;;;;2.00;99.90;;;;;;5050222;28;19932;-76
2023/03/28 02:27:56;;;;;;;;;;;1.40;99.90;;;;;;5051526;28;19936;-76
2023/03/28 02:30:22;;;;;;;;;;;1.50;99.90;;;;;;5049979;28;19929;-76
2023/03/28 02:32:49;;;;;;;;;;;1.70;99.90;;;;;;5050545;28;19931;-75
2023/03/28 02:35:16;;;;;;;;;;;1.40;99.90;;;;;;5050208;28;19929;-75
2023/03/28 02:37:44;;;;;;;;;;;1.30;99.90;;;;;;5048933;28;19935;-75
2023/03/28 02:40:26;;;;;;;;;;;1.30;99.90;;;;;;5034333;28;19935;-75
2023/03/28 02:43:10;;;;;;;;;;;1.30;99.90;;;;;;5050469;28;19933;-75
2023/03/28 02:45:54;;;;;;;;;;;1.30;99.90;;;;;;5051531;28;19929;-76
2023/03/28 02:48:35;;;;;;;;;;;1.30;99.90;;;;;;5048117;28;19933;-76
2023/03/28 02:51:23;;;;;;;;;;;1.30;99.90;;;;;;5051371;28;20339;-76
2023/03/28 02:53:52;;;;;;;;;;;1.20;99.90;;;;;;5043309;28;19924;-76
2023/03/28 02:56:30;;;;;;;;;;;1.20;99.90;;;;;;5049393;28;19925;-75
2023/03/28 02:59:00;;;;;;;;;;;1.20;99.90;;;;;;5047791;28;19932;-76
2023/03/28 03:01:29;;;;;;;;;;;3.10;99.90;;;;;;5049824;28;19972;-75
2023/03/28 03:03:55;;;;;;;;;;;1.20;99.90;;;;;;5040635;28;19925;-76
2023/03/28 03:06:21;;;;;;;;;;;2.50;99.90;;;;;;5049847;28;19931;-76
2023/03/28 03:08:46;;;;;;;;;;;3.00;99.90;;;;;;5044142;28;19968;-76
2023/03/28 03:11:12;;;;;;;;;;;1.50;99.90;;;;;;5031280;28;19979;-76
2023/03/28 03:13:37;;;;;;;;;;;1.10;99.90;;;;;;5046086;28;19929;-75
2023/03/28 03:16:04;;;;;;;;;;;2.90;99.90;;;;;;5044232;28;20016;-76
2023/03/28 03:18:29;;;;;;;;;;;1.00;99.90;;;;;;5047744;28;19932;-75
2023/03/28 03:20:55;;;;;;;;;;;0.90;99.90;;;;;;5041418;28;19929;-75
2023/03/28 03:23:20;;;;;;;;;;;0.80;99.90;;;;;;5049346;28;19929;-75
2023/03/28 03:25:49;;;;;;;;;;;0.80;99.90;;;;;;5049876;28;20283;-75
2023/03/28 03:28:15;;;;;;;;;;;1.00;99.90;;;;;;5049586;28;20393;-75
2023/03/28 03:30:40;;;;;;;;;;;0.80;99.90;;;;;;5050573;28;20044;-75
2023/03/28 03:33:09;;;;;;;;;;;1.20;99.90;;;;;;5049301;28;19947;-78
2023/03/28 03:35:35;;;;;;;;;;;1.90;99.90;;;;;;5053637;28;20435;-78
2023/03/28 03:38:00;;;;;;;;;;;2.00;99.90;;;;;;5054361;28;20294;-78
2023/03/28 03:40:26;;;;;;;;;;;1.30;99.90;;;;;;5053059;28;19924;-78
2023/03/28 03:42:52;;;;;;;;;;;0.70;99.90;;;;;;5035652;28;19933;-75
2023/03/28 03:45:17;;;;;;;;;;;0.50;99.90;;;;;;5041268;28;19928;-75
2023/03/28 03:47:43;;;;;;;;;;;0.50;99.90;;;;;;5053379;28;19986;-75
2023/03/28 03:50:09;;;;;;;;;;;0.50;99.90;;;;;;5053046;28;20019;-75
2023/03/28 03:52:34;;;;;;;;;;;0.50;99.90;;;;;;5054590;28;20282;-75
2023/03/28 03:55:00;;;;;;;;;;;0.70;99.90;;;;;;5053858;28;19925;-75
2023/03/28 03:57:26;;;;;;;;;;;0.40;99.90;;;;;;5040508;28;19931;-75
2023/03/28 03:59:51;;;;;;;;;;;1.50;99.90;;;;;;5054542;28;19929;-75
2023/03/28 04:02:17;;;;;;;;;;;1.40;99.90;;;;;;5053689;28;19932;-75
2023/03/28 04:04:44;;;;;;;;;;;0.40;99.90;;;;;;5046228;28;19936;-75
2023/03/28 04:07:10;;;;;;;;;;;0.70;99.90;;;;;;5051957;28;19925;-75
2023/03/28 04:09:36;;;;;;;;;;;0.70;99.90;;;;;;5052898;28;19983;-75
2023/03/28 04:12:02;;;;;;;;;;;0.60;99.90;;;;;;5052862;28;19970;-75
2023/03/28 04:14:27;;;;;;;;;;;0.40;99.90;;;;;;5053328;28;19932;-75
2023/03/28 04:16:53;;;;;;;;;;;0.40;99.90;;;;;;5052515;28;19974;-75
2023/03/28 04:19:19;;;;;;;;;;;1.20;99.90;;;;;;5053127;28;20294;-74
2023/03/28 04:21:47;;;;;;;;;;;0.40;99.90;;;;;;5053860;28;19925;-75
2023/03/28 04:24:16;;;;;;;;;;;1.00;99.90;;;;;;5053888;28;20402;-76
2023/03/28 04:26:42;;;;;;;;;;;0.40;99.90;;;;;;5052283;28;20823;-75
2023/03/28 04:29:09;;;;;;;;;;;1.90;99.90;;;;;;5053400;28;19951;-75
2023/03/28 04:31:37;;;;;;;;;;;1.00;99.90;;;;;;5052371;28;19964;-75
2023/03/28 04:34:04;;;;;;;;;;;1.00;99.90;;;;;;5052855;28;19979;-75
2023/03/28 04:36:30;;;;;;;;;;;1.30;99.90;;;;;;5075815;28;19929;-75
2023/03/28 04:38:58;;;;;;;;;;;0.30;99.90;;;;;;5054006;28;19929;-75
2023/03/28 04:41:24;;;;;;;;;;;0.30;99.90;;;;;;5051617;28;19932;-74
2023/03/28 04:43:50;;;;;;;;;;;0.30;99.90;;;;;;5053445;28;19928;-75
2023/03/28 04:46:16;;;;;;;;;;;0.30;99.90;;;;;;5051301;28;20019;-75
2023/03/28 04:48:41;;;;;;;;;;;0.90;99.90;;;;;;5051396;28;20629;-76
2023/03/28 04:51:07;;;;;;;;;;;0.30;99.90;;;;;;5053466;28;19999;-75
2023/03/28 04:53:33;;;;;;;;;;;1.80;99.90;;;;;;5053284;28;19925;-75
2023/03/28 04:55:58;;;;;;;;;;;0.30;99.90;;;;;;5053765;28;20290;-75
2023/03/28 04:58:24;;;;;;;;;;;0.40;99.90;;;;;;5052587;28;20830;-74
2023/03/28 05:00:50;;;;;;;;;;;0.40;99.90;;;;;;5053302;28;19924;-75
2023/03/28 05:03:19;;;;;;;;;;;1.10;99.90;;;;;;5052354;28;19932;-75
2023/03/28 05:05:46;;;;;;;;;;;1.00;99.90;;;;;;5050736;28;19929;-76
2023/03/28 05:08:12;;;;;;;;;;;0.50;99.90;;;;;;5052961;28;19935;-75
2023/03/28 05:10:38;;;;;;;;;;;0.50;99.90;;;;;;5052238;28;20011;-75
2023/03/28 05:13:04;;;;;;;;;;;2.10;99.90;;;;;;5052234;28;20346;-75
2023/03/28 05:15:30;;;;;;;;;;;0.50;99.90;;;;;;5051723;28;20003;-75
2023/03/28 05:17:56;;;;;;;;;;;1.30;99.90;;;;;;5052254;28;19925;-78
2023/03/28 05:20:21;;;;;;;;;;;1.50;99.90;;;;;;5052384;28;19929;-78
2023/03/28 05:22:47;;;;;;;;;;;1.50;99.90;;;;;;5052786;28;19968;-78
2023/03/28 05:25:12;;;;;;;;;;;1.30;99.90;;;;;;5053109;28;19928;-75
2023/03/28 05:27:38;;;;;;;;;;;0.90;99.90;;;;;;5052470;28;20385;-75
2023/03/28 05:30:07;;;;;;;;;;;2.30;99.90;;;;;;5052913;28;19928;-75
2023/03/28 05:32:32;;;;;;;;;;;0.60;99.90;;;;;;5049154;28;19935;-75
2023/03/28 05:34:58;;;;;;;;;;;1.60;99.90;;;;;;5047645;28;19929;-75
2023/03/28 05:37:24;;;;;;;;;;;0.60;99.90;;;;;;5052732;28;20011;-75
2023/03/28 05:39:50;;;;;;;;;;;0.70;99.90;;;;;;5052293;28;19979;-75
2023/03/28 05:42:15;;;;;;;;;;;1.50;99.90;;;;;;5052576;28;20509;-75
2023/03/28 05:44:41;;;;;;;;;;;1.60;99.90;;;;;;5051904;28;19929;-75
2023/03/28 05:47:07;;;;;;;;;;;0.80;99.90;;;;;;5051573;28;19925;-76
2023/03/28 05:49:32;;;;;;;;;;;1.80;99.90;;;;;;5050964;28;20290;-75
2023/03/28 05:51:58;;;;;;;;;;;0.80;99.90;;;;;;5052508;28;19931;-75
2023/03/28 05:54:23;;;;;;;;;;;0.80;99.90;;;;;;5046477;28;19929;-75
2023/03/28 05:56:49;;;;;;;;;;;0.90;99.90;;;;;;5050260;28;19927;-75
2023/03/28 05:59:17;;;;;;;;;;;1.60;99.90;;;;;;5052178;28;19975;-75
2023/03/28 06:01:45;;;;;;;;;;;0.90;99.90;;;;;;5050962;28;20019;-75
2023/03/28 06:04:11;;;;;;;;;;;1.10;99.90;;;;;;5051297;28;19998;-75
2023/03/28 06:06:37;;;;;;;;;;;1.00;99.90;;;;;;5051485;28;19928;-75
2023/03/28 06:09:02;;;;;;;;;;;1.00;99.90;;;;;;5052438;28;19935;-75
2023/03/28 06:11:28;;;;;;;;;;;1.00;99.90;;;;;;5067845;28;20366;-75
2023/03/28 06:13:54;;;;;;;;;;;1.00;99.90;;;;;;5050451;28;19978;-75
2023/03/28 06:16:19;;;;;;;;;;;1.20;99.90;;;;;;5074454;28;19931;-75
2023/03/28 06:18:45;;;;;;;;;;;1.50;99.90;;;;;;5050054;28;19936;-75
2023/03/28 06:21:10;;;;;;;;;;;2.50;99.90;;;;;;5051042;28;19929;-75
2023/03/28 06:23:36;;;;;;;;;;;1.30;99.90;;;;;;5049081;28;19986;-75
2023/03/28 06:26:02;;;;;;;;;;;1.20;99.90;;;;;;5050523;28;19936;-75
2023/03/28 06:28:27;;;;;;;;;;;1.30;99.90;;;;;;5050075;28;20382;-75
2023/03/28 06:30:53;;;;;;;;;;;2.40;99.90;;;;;;5049461;28;20309;-75
2023/03/28 06:33:19;;;;;;;;;;;1.30;99.90;;;;;;5050690;28;19936;-75
2023/03/28 06:35:45;;;;;;;;;;;2.00;99.90;;;;;;5046872;28;19925;-75
2023/03/28 06:38:10;;;;;;;;;;;1.90;99.90;;;;;;5035220;28;20382;-66
2023/03/28 06:40:36;;;;;;;;;;;1.60;99.90;;;;;;5051080;28;19999;-68
2023/03/28 06:43:01;;;;;;;;;;;1.80;99.90;;;;;;5051405;28;20012;-66
2023/03/28 06:45:27;;;;;;;;;;;1.90;99.90;;;;;;5051257;28;20062;-77
2023/03/28 06:47:53;;;;;;;;;;;2.50;99.90;;;;;;5048555;28;19921;-72
2023/03/28 06:50:18;;;;;;;;;;;2.20;99.90;;;;;;5050807;28;19935;-70
2023/03/28 06:52:45;;;;;;;;;;;2.30;99.90;;;;;;5051074;28;19932;-70
2023/03/28 06:55:11;;;;;;;;;;;2.50;99.90;;;;;;5066873;28;19924;-77
2023/03/28 06:57:36;;;;;;;;;;;2.60;99.90;;;;;;5035434;28;19932;-78
2023/03/28 07:00:03;;;;;;;;;;;2.80;99.90;;;;;;5045911;28;19929;-79
2023/03/28 07:02:28;;;;;;;;;;;2.70;99.90;;;;;;5050559;28;20451;-79
2023/03/28 07:04:54;;;;;;;;;;;3.10;99.90;;;;;;5028410;28;19931;-79
2023/03/28 07:07:21;;;;;;;;;;;2.90;99.90;;;;;;5031442;28;19929;-79
2023/03/28 07:09:48;;;;;;;;;;;2.80;99.90;;;;;;5030151;28;19976;-78
2023/03/28 07:12:14;;;;;;;;;;;2.80;99.90;;;;;;5041641;28;19928;-78
2023/03/28 07:14:43;;;;;;;;;;;2.80;99.90;;;;;;5050511;28;19982;-79
2023/03/28 07:17:09;;;;;;;;;;;3.00;99.90;;;;;;5049109;28;20294;-78
2023/03/28 07:19:35;;;;;;;;;;;4.20;99.90;;;;;;5049775;28;19925;-76
2023/03/28 07:22:00;;;;;;;;;;;3.40;99.90;;;;;;5049338;28;19932;-78
2023/03/28 07:24:26;;;;;;;;;;;3.30;99.90;;;;;;5051176;28;20031;-79
2023/03/28 07:26:52;;;;;;;;;;;3.00;99.90;;;;;;5046407;28;19932;-78
2023/03/28 07:29:17;;;;;;;;;;;3.30;99.90;;;;;;5049625;28;19931;-79
2023/03/28 07:31:43;;;;;;;;;;;3.20;99.90;;;;;;5048274;28;19929;-79
2023/03/28 07:34:08;;;;;;;;;;;3.20;99.90;;;;;;5049056;28;19928;-78
2023/03/28 07:36:34;;;;;;;;;;;3.30;99.90;;;;;;5050754;28;20011;-77
2023/03/28 07:39:00;;;;;;;;;;;3.40;99.90;;;;;;5050711;28;20449;-78
2023/03/28 07:41:26;;;;;;;;;;;3.50;99.90;;;;;;5050361;28;20002;-79
2023/03/28 07:43:51;;;;;;;;;;;3.90;99.90;;;;;;5037795;28;19933;-75
2023/03/28 07:46:19;;;;;;;;;;;3.70;99.90;;;;;;5036824;28;19925;-76
2023/03/28 07:48:45;;;;;;;;;;;3.70;99.90;;;;;;5048829;28;19952;-77
2023/03/28 07:51:11;;;;;;;;;;;3.90;99.90;;;;;;5050578;28;20382;-76
2023/03/28 07:53:37;;;;;;;;;;;3.90;99.90;;;;;;5050645;28;19928;-73
2023/03/28 07:56:04;;;;;;;;;;;4.00;99.90;;;;;;5047991;28;19929;-74
2023/03/28 07:58:30;;;;;;;;;;;4.10;99.90;;;;;;5048817;28;19947;-74
2023/03/28 08:01:02;;;;;;;;;;;4.20;99.90;;;;;;5064570;28;20449;-73
2023/03/28 08:03:27;;;;;;;;;;;4.20;99.90;;;;;;5046663;28;20267;-74
2023/03/28 08:05:53;;;;;;;;;;;3.00;99.90;;;;;;5047566;28;19935;-74
2023/03/28 08:08:19;;;;;;;;;;;4.90;99.90;;;;;;5031224;28;19924;-74
2023/03/28 08:10:45;;;;;;;;;;;4.40;99.90;;;;;;5047935;28;20405;-74
2023/03/28 08:13:10;;;;;;;;;;;4.50;99.90;;;;;;5048600;28;20004;-74
2023/03/28 08:15:36;;;;;;;;;;;4.50;99.90;;;;;;5048247;28;19937;-74
2023/03/28 08:18:02;;;;;;;;;;;4.60;99.90;;;;;;5044238;28;19937;-74
2023/03/28 08:20:27;;;;;;;;;;;4.70;99.90;;;;;;5049465;28;19975;-73
2023/03/28 08:22:53;;;;;;;;;;;4.80;99.90;;;;;;5052538;28;20385;-74
2023/03/28 08:25:18;;;;;;;;;;;5.10;99.90;;;;;;5048394;28;19979;-74
2023/03/28 08:27:44;;;;;;;;;;;4.90;99.90;;;;;;5051731;28;19932;-73
2023/03/28 08:30:10;;;;;;;;;;;5.00;99.90;;;;;;5052395;28;19925;-74
2023/03/28 08:32:36;;;;;;;;;;;4.80;99.90;;;;;;5048078;28;19933;-74
2023/03/28 08:35:01;;;;;;;;;;;5.10;99.90;;;;;;5049879;28;19924;-77
2023/03/28 08:37:28;;;;;;;;;;;5.10;99.90;;;;;;5049028;28;20290;-77
2023/03/28 08:39:54;;;;;;;;;;;5.10;99.90;;;;;;5048020;28;19951;-77
2023/03/28 08:42:26;;;;;;;;;;;5.10;99.90;;;;;;5052319;28;19929;-80
2023/03/28 08:45:11;;;;;;;;;;;5.20;99.90;;;;;;5046483;28;19929;-79
2023/03/28 08:47:51;;;;;;;;;;;5.10;99.90;;;;;;5051418;28;19925;-79
2023/03/28 08:50:22;;;;;;;;;;;5.10;99.90;;;;;;5052582;28;19925;-80
2023/03/28 08:52:48;;;;;;;;;;;6.30;99.90;;;;;;5050624;28;20627;-75
2023/03/28 08:55:28;;;;;;;;;;;5.10;99.90;;;;;;5046985;28;19929;-80
2023/03/28 08:57:54;;;;;;;;;;;5.20;99.90;;;;;;5049236;28;20444;-76
2023/03/28 09:00:21;;;;;;;;;;;5.20;99.90;;;;;;5053387;28;19925;-75
2023/03/28 09:02:47;;;;;;;;;;;5.20;99.90;;;;;;5051337;28;19925;-74
2023/03/28 09:05:14;;;;;;;;;;;5.60;99.90;;;;;;5052610;28;19932;-76
2023/03/28 09:07:53;;;;;;;;;;;5.10;99.90;;;;;;5053333;28;20414;-75
2023/03/28 09:10:22;;;;;;;;;;;5.10;99.90;;;;;;5051189;28;20405;-75
2023/03/28 09:12:47;;;;;;;;;;;5.10;99.90;;;;;;5052536;28;19925;-75
2023/03/28 09:15:26;;;;;;;;;;;5.10;99.90;;;;;;5052471;28;20389;-75
2023/03/28 09:18:05;;;;;;;;;;;5.20;99.90;;;;;;5067020;28;19936;-74
2023/03/28 09:20:56;;;;;;;;;;;5.20;99.90;;;;;;5052187;28;19925;-74
2023/03/28 09:23:41;;;;;;;;;;;6.50;99.90;;;;;;5050326;28;20320;-74
2023/03/28 09:26:10;;;;;;;;;;;5.30;99.90;;;;;;5052339;28;19936;-74
2023/03/28 09:28:35;;;;;;;;;;;5.40;99.90;;;;;;5068167;28;19935;-74
2023/03/28 09:31:03;;;;;;;;;;;5.50;99.90;;;;;;5034415;28;19933;-75
2023/03/28 09:33:32;;;;;;;;;;;5.60;99.90;;;;;;5049439;28;19929;-75
2023/03/28 09:35:57;;;;;;;;;;;5.70;99.90;;;;;;5043300;28;19928;-74
2023/03/28 09:38:43;;;;;;;;;;;5.90;99.90;;;;;;5052480;28;19925;-74
2023/03/28 09:41:15;;;;;;;;;;;6.00;99.90;;;;;;5049048;28;19985;-74
2023/03/28 09:43:41;;;;;;;;;;;6.10;99.90;;;;;;5048546;28;19932;-76
2023/03/28 09:46:08;;;;;;;;;;;6.20;99.90;;;;;;5050660;28;19925;-76
2023/03/28 09:48:35;;;;;;;;;;;6.30;99.90;;;;;;5050691;28;19928;-75
2023/03/28 09:51:01;;;;;;;;;;;6.70;99.90;;;;;;5051859;28;19936;-75
2023/03/28 09:53:27;;;;;;;;;;;6.40;99.90;;;;;;5044677;28;20016;-79
2023/03/28 09:55:54;;;;;;;;;;;6.60;99.90;;;;;;5038356;28;20015;-72
2023/03/28 09:58:20;;;;;;;;;;;6.70;99.90;;;;;;5043015;28;19925;-72
2023/03/28 10:00:48;;;;;;;;;;;6.80;99.90;;;;;;5049154;28;19925;-71
2023/03/28 10:03:33;;;;;;;;;;;6.90;99.90;;;;;;5043790;28;20776;-71
2023/03/28 10:06:16;;;;;;;;;;;6.90;99.90;;;;;;5043237;28;19951;-76
2023/03/28 10:08:43;;;;;;;;;;;7.00;99.90;;;;;;5043171;28;19929;-73
2023/03/28 10:11:12;;;;;;;;;;;7.10;99.90;;;;;;5048762;28;19971;-74
2023/03/28 10:13:39;;;;;;;;;;;7.20;99.90;;;;;;5041164;28;19929;-74
2023/03/28 10:16:05;;;;;;;;;;;7.20;99.90;;;;;;5050289;28;19959;-73
2023/03/28 10:18:31;;;;;;;;;;;7.30;99.90;;;;;;5047515;28;19928;-78
2023/03/28 10:21:01;;;;;;;;;;;7.30;99.90;;;;;;5044425;28;20015;-74
2023/03/28 10:23:26;;;;;;;;;;;7.30;99.90;;;;;;5042909;28;19955;-74
2023/03/28 10:25:53;;;;;;;;;;;7.30;99.90;;;;;;5049666;28;19929;-80
2023/03/28 10:28:30;;;;;;;;;;;7.30;99.90;;;;;;5046990;28;19936;-75
2023/03/28 10:36:03;;;;;;;;;;;7.30;99.90;;;;;;5056201;28;19924;-78
2023/03/28 10:38:31;;;;;;;;;;;7.30;99.90;;;;;;5071257;28;20257;-79
2023/03/28 10:41:08;;;;;;;;;;;7.30;99.90;;;;;;5070922;28;20407;-78
2023/03/28 10:43:40;;;;;;;;;;;7.20;99.90;;;;;;5070651;28;19932;-75
2023/03/28 10:46:20;;;;;;;;;;;7.20;99.90;;;;;;5071225;28;19936;-79
2023/03/28 10:48:55;;;;;;;;;;;7.30;99.90;;;;;;5070141;28;20011;-78
2023/03/28 10:51:22;;;;;;;;;;;7.30;99.90;;;;;;5070427;28;19924;-79
2023/03/28 10:54:06;;;;;;;;;;;7.40;99.90;;;;;;5054061;28;20288;-79
2023/03/28 10:56:51;;;;;;;;;;;7.50;99.90;;;;;;5070591;28;19925;-77
2023/03/28 10:59:16;;;;;;;;;;;7.50;99.90;;;;;;5070894;28;19940;-78
2023/03/28 11:01:54;;;;;;;;;;;7.50;99.90;;;;;;5070251;28;20354;-81
2023/03/28 11:04:49;;;;;;;;;;;7.50;99.90;;;;;;5071517;28;20023;-78
2023/03/28 11:07:17;;;;;;;;;;;7.60;99.90;;;;;;5070446;28;19925;-79
2023/03/28 11:09:55;;;;;;;;;;;7.60;99.90;;;;;;5071723;28;20016;-80
2023/03/28 11:12:39;;;;;;;;;;;7.60;99.90;;;;;;5071946;28;19924;-77
2023/03/28 11:15:07;;;;;;;;;;;7.60;99.90;;;;;;5071555;28;20547;-78
2023/03/28 11:17:45;;;;;;;;;;;7.70;99.90;;;;;;5069166;28;19932;-77
2023/03/28 11:20:23;;;;;;;;;;;7.60;99.90;;;;;;5070419;28;19924;-78
2023/03/28 11:23:07;;;;;;;;;;;7.60;99.90;;;;;;5070363;28;20380;-78
2023/03/28 11:25:41;;;;;;;;;;;7.60;99.90;;;;;;5069884;28;20107;-77
2023/03/28 11:28:14;;;;;;;;;;;7.70;99.90;;;;;;5070454;28;20213;-77
2023/03/28 11:30:41;;;;;;;;;;;7.80;99.90;;;;;;5070975;28;19931;-77
2023/03/28 11:33:27;;;;;;;;;;;8.00;99.90;;;;;;5070883;28;19920;-82
2023/03/28 11:35:55;;;;;;;;;;;8.10;99.90;;;;;;5070476;28;20001;-79
2023/03/28 11:38:35;;;;;;;;;;;8.10;99.90;;;;;;5071271;28;19924;-77
2023/03/28 11:41:03;;;;;;;;;;;8.10;99.90;;;;;;5070351;28;19924;-78
2023/03/28 11:43:48;;;;;;;;;;;8.20;99.90;;;;;;5070132;28;20289;-78
2023/03/28 11:46:16;;;;;;;;;;;8.30;99.90;;;;;;5071273;28;19975;-77
2023/03/28 11:48:48;;;;;;;;;;;8.40;99.90;;;;;;5069311;28;19928;-77
2023/03/28 11:51:40;;;;;;;;;;;8.50;99.90;;;;;;5069761;28;19978;-77
2023/03/28 11:54:10;;;;;;;;;;;8.50;99.90;;;;;;5067900;28;19924;-78
2023/03/28 11:56:42;;;;;;;;;;;8.50;99.60;;;;;;5073262;28;20365;-79
2023/03/28 11:59:11;;;;;;;;;;;8.50;99.90;;;;;;5073843;28;19924;-77
2023/03/28 12:01:39;;;;;;;;;;;8.50;99.90;;;;;;5074888;28;19928;-77
2023/03/28 12:04:09;;;;;;;;;;;8.50;99.90;;;;;;5074612;28;19925;-77
2023/03/28 12:06:51;;;;;;;;;;;8.50;99.90;;;;;;5075319;28;20391;-79
2023/03/28 12:09:33;;;;;;;;;;;8.70;99.90;;;;;;5075763;28;19934;-81
2023/03/28 12:12:07;;;;;;;;;;;8.90;99.90;;;;;;5073639;28;19987;-80
2023/03/28 12:14:47;;;;;;;;;;;9.00;99.90;;;;;;5073542;28;19932;-80
2023/03/28 12:17:22;;;;;;;;;;;9.10;96.90;;;;;;5072635;28;19928;-81
2023/03/28 12:19:48;;;;;;;;;;;9.00;97.70;;;;;;5072145;28;19968;-77
2023/03/28 12:22:18;;;;;;;;;;;9.10;99.10;;;;;;5073910;28;19978;-77
2023/03/28 12:24:52;;;;;;;;;;;9.00;96.40;;;;;;5074879;28;20315;-77
2023/03/28 12:27:27;;;;;;;;;;;8.90;94.00;;;;;;5073707;28;19925;-77
2023/03/28 12:29:53;;;;;;;;;;;8.80;96.40;;;;;;5074070;28;19970;-78
2023/03/28 12:32:41;;;;;;;;;;;8.90;97.50;;;;;;5074483;28;19924;-77
2023/03/28 12:35:25;;;;;;;;;;;9.10;98.30;;;;;;5044206;28;19924;-77
2023/03/28 12:37:54;;;;;;;;;;;9.40;96.50;;;;;;5074790;28;19931;-77
2023/03/28 12:40:24;;;;;;;;;;;9.60;92.40;;;;;;5073869;28;20070;-77
2023/03/28 12:42:51;;;;;;;;;;;9.80;95.80;;;;;;5074658;28;19969;-78
2023/03/28 12:45:18;;;;;;;;;;;10.20;93.60;;;;;;5073195;28;19978;-76
2023/03/28 12:47:47;;;;;;;;;;;10.10;88.20;;;;;;5073148;28;19924;-78
2023/03/28 12:50:19;;;;;;;;;;;10.10;92.60;;;;;;5073994;28;19976;-76
2023/03/28 12:52:45;;;;;;;;;;;10.10;92.30;;;;;;5074647;28;19924;-75
2023/03/28 12:55:34;;;;;;;;;;;10.40;87.20;;;;;;5074402;28;19925;-77
2023/03/28 12:58:12;;;;;;;;;;;10.40;88.70;;;;;;5068219;28;19925;-78
2023/03/28 13:00:56;;;;;;;;;;;10.30;90.80;;;;;;5074551;28;19935;-77
2023/03/28 13:03:40;;;;;;;;;;;10.20;89.80;;;;;;5073745;28;19924;-77
2023/03/28 13:06:21;;;;;;;;;;;10.40;91.30;;;;;;5073209;28;20351;-77
2023/03/28 13:09:11;;;;;;;;;;;10.40;90.30;;;;;;5074074;28;19931;-75
2023/03/28 13:11:50;;;;;;;;;;;10.50;91.50;;;;;;5074161;28;19971;-77
2023/03/28 13:14:28;;;;;;;;;;;10.50;83.40;;;;;;5073712;28;19928;-77
2023/03/28 13:17:16;;;;;;;;;;;10.50;91.80;;;;;;5073204;28;19995;-77
2023/03/28 13:19:42;;;;;;;;;;;10.30;90.00;;;;;;5073435;28;20448;-77
2023/03/28 13:22:25;;;;;;;;;;;10.40;87.90;;;;;;5072766;28;19964;-77
2023/03/28 13:24:51;;;;;;;;;;;10.50;87.50;;;;;;5055800;28;19925;-77
2023/03/28 13:27:33;;;;;;;;;;;10.40;88.00;;;;;;5073394;28;19932;-77
2023/03/28 13:30:03;;;;;;;;;;;10.40;82.20;;;;;;5073822;28;19925;-77
2023/03/28 13:32:43;;;;;;;;;;;10.40;82.50;;;;;;5072252;28;20039;-79
2023/03/28 13:35:28;;;;;;;;;;;10.40;83.00;;;;;;5070992;28;19924;-78
2023/03/28 13:37:54;;;;;;;;;;;10.50;86.60;;;;;;5072460;28;19924;-79
2023/03/28 13:40:50;;;;;;;;;;;10.30;83.40;;;;;;5071863;28;19924;-79
2023/03/28 13:43:23;;;;;;;;;;;10.00;81.50;;;;;;5068699;28;20399;-77
2023/03/28 13:45:50;;;;;;;;;;;9.70;83.50;;;;;;5072029;28;20027;-78
2023/03/28 13:48:15;;;;;;;;;;;9.60;84.10;;;;;;5054218;28;19990;-79
2023/03/28 13:50:42;;;;;;;;;;;9.50;82.30;;;;;;5055325;28;19932;-78
2023/03/28 13:53:07;;;;;;;;;;;9.40;85.60;;;;;;5071703;28;20418;-79
2023/03/28 13:55:33;;;;;;;;;;;9.60;87.70;;;;;;5055732;28;19925;-78
2023/03/28 13:58:00;;;;;;;;;;;10.00;87.00;;;;;;5055452;28;19955;-78
2023/03/28 14:00:26;;;;;;;;;;;10.40;85.70;;;;;;5071156;28;20514;-78
2023/03/28 14:02:53;;;;;;;;;;;10.80;83.50;;;;;;5071752;28;19925;-77
2023/03/28 14:05:20;;;;;;;;;;;11.30;83.60;;;;;;5070669;28;19931;-79
2023/03/28 14:07:46;;;;;;;;;;;11.50;75.50;;;;;;5072708;28;20415;-78
2023/03/28 14:10:24;;;;;;;;;;;11.40;78.90;;;;;;5055046;28;19925;-78
2023/03/28 14:12:51;;;;;;;;;;;11.20;79.50;;;;;;5072064;28;19924;-77
2023/03/28 14:15:21;;;;;;;;;;;10.90;80.80;;;;;;5071523;28;20022;-79
2023/03/28 14:17:46;;;;;;;;;;;10.90;80.30;;;;;;5071374;28;20288;-76
2023/03/28 14:20:16;;;;;;;;;;;11.00;80.00;;;;;;5071122;28;19924;-78
2023/03/28 14:22:43;;;;;;;;;;;11.00;79.00;;;;;;5071691;28;20367;-74
2023/03/28 14:25:12;;;;;;;;;;;10.90;81.30;;;;;;5070807;28;19925;-79
2023/03/28 14:27:39;;;;;;;;;;;10.70;80.80;;;;;;5071598;28;20082;-77
2023/03/28 14:30:24;;;;;;;;;;;10.40;77.90;;;;;;5071336;28;19925;-77
2023/03/28 14:32:50;;;;;;;;;;;10.00;83.30;;;;;;5071373;28;19931;-79
2023/03/28 14:35:18;;;;;;;;;;;9.80;86.00;;;;;;5070449;28;20351;-78
2023/03/28 14:37:50;;;;;;;;;;;10.20;85.20;;;;;;5071422;28;19924;-78
2023/03/28 14:40:17;;;;;;;;;;;11.00;82.80;;;;;;5071363;28;19929;-78
2023/03/28 14:42:43;;;;;;;;;;;11.30;80.70;;;;;;5071561;28;20039;-78
2023/03/28 14:45:12;;;;;;;;;;;11.30;74.80;;;;;;5070697;28;20537;-81
2023/03/28 14:47:38;;;;;;;;;;;10.80;77.60;;;;;;5054074;28;20018;-78